Chapel Lakes, Florida
Current Conditions -  °F | °C
As of 10:53 AM on Thursday 30 Oct 2014 (Local Time) from KOPF Reporting Station
Clear Clear  
Wind Chill: 81°   Ceiling: Unl
Heat Index: 83°   Visibility: 10mi
Dew Point: 66°   Wind: 0mph
Humidity: 60%   Direction: NA
Pressure: 29.99"   Gusts: NA
Location:  26.0368°N, 80.6206°W
Report Text: KOPF 301453Z 00000KT 10SM CLR 27/19 A2999 RMK AO2 SLP155 T02720189 50006
Loading
Personal Weather Stations






























Interactive Weather Map
Tropical Storm Tracking
New forecast layout! Learn more

10-Day Weather Forecast

Advertisements
Track Severe Weather on mobile